sensor_id;sensor_type;location;lat;lon;timestamp;P1;durP1;ratioP1;P2;durP2;ratioP2
53903;SDS011;39812;52.430;16.936;2022-08-07T00:00:57;3.00;;;1.05;;
53903;SDS011;39812;52.430;16.936;2022-08-07T00:03:22;2.50;;;1.25;;
53903;SDS011;39812;52.430;16.936;2022-08-07T00:05:50;4.13;;;1.20;;
53903;SDS011;39812;52.430;16.936;2022-08-07T00:08:17;6.05;;;1.95;;
53903;SDS011;39812;52.430;16.936;2022-08-07T00:10:43;2.92;;;1.30;;
53903;SDS011;39812;52.430;16.936;2022-08-07T00:13:09;1.58;;;1.10;;
53903;SDS011;39812;52.430;16.936;2022-08-07T00:15:35;3.17;;;1.17;;
53903;SDS011;39812;52.430;16.936;2022-08-07T00:18:01;2.42;;;1.33;;
53903;SDS011;39812;52.430;16.936;2022-08-07T00:20:27;2.88;;;1.25;;
53903;SDS011;39812;52.430;16.936;2022-08-07T00:22:52;2.47;;;1.33;;
53903;SDS011;39812;52.430;16.936;2022-08-07T00:25:18;1.60;;;1.10;;
53903;SDS011;39812;52.430;16.936;2022-08-07T00:27:44;2.28;;;1.23;;
53903;SDS011;39812;52.430;16.936;2022-08-07T00:30:09;2.67;;;1.10;;
53903;SDS011;39812;52.430;16.936;2022-08-07T00:32:35;2.17;;;1.27;;
53903;SDS011;39812;52.430;16.936;2022-08-07T00:35:01;4.55;;;1.40;;
53903;SDS011;39812;52.430;16.936;2022-08-07T00:37:26;2.22;;;1.00;;
53903;SDS011;39812;52.430;16.936;2022-08-07T00:39:52;4.10;;;1.05;;
53903;SDS011;39812;52.430;16.936;2022-08-07T00:42:20;2.75;;;1.25;;
53903;SDS011;39812;52.430;16.936;2022-08-07T00:44:46;3.92;;;1.73;;
53903;SDS011;39812;52.430;16.936;2022-08-07T00:47:12;1.73;;;1.17;;
53903;SDS011;39812;52.430;16.936;2022-08-07T00:49:37;1.52;;;1.08;;
53903;SDS011;39812;52.430;16.936;2022-08-07T00:52:07;1.77;;;1.17;;
53903;SDS011;39812;52.430;16.936;2022-08-07T00:54:33;3.17;;;1.40;;
53903;SDS011;39812;52.430;16.936;2022-08-07T00:56:59;2.35;;;1.33;;
53903;SDS011;39812;52.430;16.936;2022-08-07T00:59:25;2.70;;;1.20;;
53903;SDS011;39812;52.430;16.936;2022-08-07T01:01:50;1.83;;;1.27;;
53903;SDS011;39812;52.430;16.936;2022-08-07T01:04:16;2.78;;;1.20;;
53903;SDS011;39812;52.430;16.936;2022-08-07T01:06:43;1.25;;;1.13;;
53903;SDS011;39812;52.430;16.936;2022-08-07T01:09:10;3.03;;;1.35;;
53903;SDS011;39812;52.430;16.936;2022-08-07T01:11:35;3.75;;;1.52;;
53903;SDS011;39812;52.430;16.936;2022-08-07T01:14:02;3.13;;;1.27;;
53903;SDS011;39812;52.430;16.936;2022-08-07T01:16:27;2.38;;;1.48;;
53903;SDS011;39812;52.430;16.936;2022-08-07T01:18:53;3.63;;;1.20;;
53903;SDS011;39812;52.430;16.936;2022-08-07T01:21:19;3.17;;;1.60;;
53903;SDS011;39812;52.430;16.936;2022-08-07T01:23:48;7.75;;;1.40;;
53903;SDS011;39812;52.430;16.936;2022-08-07T01:26:15;5.00;;;1.40;;
53903;SDS011;39812;52.430;16.936;2022-08-07T01:28:44;6.50;;;1.40;;
53903;SDS011;39812;52.430;16.936;2022-08-07T01:31:12;6.22;;;1.40;;
53903;SDS011;39812;52.430;16.936;2022-08-07T01:33:38;3.15;;;1.20;;
53903;SDS011;39812;52.430;16.936;2022-08-07T01:36:05;2.20;;;1.50;;
53903;SDS011;39812;52.430;16.936;2022-08-07T01:38:33;3.83;;;1.30;;
53903;SDS011;39812;52.430;16.936;2022-08-07T01:41:00;3.28;;;1.40;;
53903;SDS011;39812;52.430;16.936;2022-08-07T01:43:27;3.35;;;1.65;;
53903;SDS011;39812;52.430;16.936;2022-08-07T01:45:54;2.35;;;1.23;;
53903;SDS011;39812;52.430;16.936;2022-08-07T01:48:20;3.90;;;1.50;;
53903;SDS011;39812;52.430;16.936;2022-08-07T01:50:48;2.90;;;1.40;;
53903;SDS011;39812;52.430;16.936;2022-08-07T01:53:18;3.08;;;1.40;;
53903;SDS011;39812;52.430;16.936;2022-08-07T01:55:46;4.07;;;1.38;;
53903;SDS011;39812;52.430;16.936;2022-08-07T01:58:14;2.55;;;1.48;;
53903;SDS011;39812;52.430;16.936;2022-08-07T02:00:45;4.15;;;1.60;;
53903;SDS011;39812;52.430;16.936;2022-08-07T02:03:17;3.05;;;1.42;;
53903;SDS011;39812;52.430;16.936;2022-08-07T02:05:47;3.05;;;1.08;;
53903;SDS011;39812;52.430;16.936;2022-08-07T02:08:16;2.67;;;1.60;;
53903;SDS011;39812;52.430;16.936;2022-08-07T02:10:47;2.33;;;1.58;;
53903;SDS011;39812;52.430;16.936;2022-08-07T02:13:17;3.20;;;1.40;;
53903;SDS011;39812;52.430;16.936;2022-08-07T02:15:45;2.00;;;1.30;;
53903;SDS011;39812;52.430;16.936;2022-08-07T02:18:12;2.10;;;1.23;;
53903;SDS011;39812;52.430;16.936;2022-08-07T02:20:39;4.57;;;1.25;;
53903;SDS011;39812;52.430;16.936;2022-08-07T02:23:06;1.55;;;1.13;;
53903;SDS011;39812;52.430;16.936;2022-08-07T02:25:35;4.15;;;1.65;;
53903;SDS011;39812;52.430;16.936;2022-08-07T02:28:02;2.40;;;1.40;;
53903;SDS011;39812;52.430;16.936;2022-08-07T02:30:29;2.20;;;1.30;;
53903;SDS011;39812;52.430;16.936;2022-08-07T02:32:55;2.35;;;1.40;;
53903;SDS011;39812;52.430;16.936;2022-08-07T02:35:23;4.60;;;2.25;;
53903;SDS011;39812;52.430;16.936;2022-08-07T02:37:49;1.75;;;1.60;;
53903;SDS011;39812;52.430;16.936;2022-08-07T02:40:17;2.97;;;1.52;;
53903;SDS011;39812;52.430;16.936;2022-08-07T02:42:43;2.20;;;1.40;;
53903;SDS011;39812;52.430;16.936;2022-08-07T02:45:10;4.22;;;1.50;;
53903;SDS011;39812;52.430;16.936;2022-08-07T02:47:39;2.67;;;1.50;;
53903;SDS011;39812;52.430;16.936;2022-08-07T02:50:04;3.85;;;1.60;;
53903;SDS011;39812;52.430;16.936;2022-08-07T02:55:09;2.10;;;1.58;;
53903;SDS011;39812;52.430;16.936;2022-08-07T02:57:38;3.40;;;1.73;;
53903;SDS011;39812;52.430;16.936;2022-08-07T03:00:05;3.28;;;1.70;;
53903;SDS011;39812;52.430;16.936;2022-08-07T03:02:31;3.33;;;1.55;;
53903;SDS011;39812;52.430;16.936;2022-08-07T03:04:59;2.63;;;1.60;;
53903;SDS011;39812;52.430;16.936;2022-08-07T03:07:26;7.70;;;1.80;;
53903;SDS011;39812;52.430;16.936;2022-08-07T03:09:54;2.25;;;1.35;;
53903;SDS011;39812;52.430;16.936;2022-08-07T03:12:20;3.35;;;1.70;;
53903;SDS011;39812;52.430;16.936;2022-08-07T03:14:46;3.30;;;1.63;;
53903;SDS011;39812;52.430;16.936;2022-08-07T03:17:12;3.15;;;1.58;;
53903;SDS011;39812;52.430;16.936;2022-08-07T03:19:39;3.60;;;1.85;;
53903;SDS011;39812;52.430;16.936;2022-08-07T03:22:05;3.88;;;1.60;;
53903;SDS011;39812;52.430;16.936;2022-08-07T03:24:32;2.20;;;1.52;;
53903;SDS011;39812;52.430;16.936;2022-08-07T03:26:59;5.22;;;1.80;;
53903;SDS011;39812;52.430;16.936;2022-08-07T03:29:28;1.75;;;1.50;;
53903;SDS011;39812;52.430;16.936;2022-08-07T03:31:58;2.08;;;1.40;;
53903;SDS011;39812;52.430;16.936;2022-08-07T03:34:25;2.00;;;1.70;;
53903;SDS011;39812;52.430;16.936;2022-08-07T03:36:51;4.20;;;1.38;;
53903;SDS011;39812;52.430;16.936;2022-08-07T03:39:18;3.20;;;1.80;;
53903;SDS011;39812;52.430;16.936;2022-08-07T03:41:46;4.00;;;2.00;;
53903;SDS011;39812;52.430;16.936;2022-08-07T03:44:11;5.85;;;1.70;;
53903;SDS011;39812;52.430;16.936;2022-08-07T03:46:37;3.65;;;1.80;;
53903;SDS011;39812;52.430;16.936;2022-08-07T03:49:06;4.00;;;1.95;;
53903;SDS011;39812;52.430;16.936;2022-08-07T03:51:32;2.83;;;1.70;;
53903;SDS011;39812;52.430;16.936;2022-08-07T03:53:58;2.72;;;1.50;;
53903;SDS011;39812;52.430;16.936;2022-08-07T03:56:24;6.13;;;1.70;;
53903;SDS011;39812;52.430;16.936;2022-08-07T03:58:51;4.03;;;1.73;;
53903;SDS011;39812;52.430;16.936;2022-08-07T04:01:17;4.25;;;1.80;;
53903;SDS011;39812;52.430;16.936;2022-08-07T04:03:43;2.90;;;1.60;;
53903;SDS011;39812;52.430;16.936;2022-08-07T04:06:09;3.25;;;1.92;;
53903;SDS011;39812;52.430;16.936;2022-08-07T04:08:36;3.90;;;1.88;;
53903;SDS011;39812;52.430;16.936;2022-08-07T04:11:03;7.10;;;2.08;;
53903;SDS011;39812;52.430;16.936;2022-08-07T04:13:29;3.95;;;2.72;;
53903;SDS011;39812;52.430;16.936;2022-08-07T04:15:55;5.10;;;2.00;;
53903;SDS011;39812;52.430;16.936;2022-08-07T04:18:21;6.45;;;1.88;;
53903;SDS011;39812;52.430;16.936;2022-08-07T04:20:46;4.22;;;1.80;;
53903;SDS011;39812;52.430;16.936;2022-08-07T04:23:12;5.45;;;2.22;;
53903;SDS011;39812;52.430;16.936;2022-08-07T04:25:39;4.68;;;1.85;;
53903;SDS011;39812;52.430;16.936;2022-08-07T04:28:06;5.00;;;2.03;;
53903;SDS011;39812;52.430;16.936;2022-08-07T04:30:34;4.18;;;1.70;;
53903;SDS011;39812;52.430;16.936;2022-08-07T04:33:00;3.90;;;1.85;;
53903;SDS011;39812;52.430;16.936;2022-08-07T04:35:33;6.00;;;2.15;;
53903;SDS011;39812;52.430;16.936;2022-08-07T04:38:06;3.38;;;1.67;;
53903;SDS011;39812;52.430;16.936;2022-08-07T04:40:33;2.47;;;1.60;;
53903;SDS011;39812;52.430;16.936;2022-08-07T04:42:59;4.55;;;2.05;;
53903;SDS011;39812;52.430;16.936;2022-08-07T04:45:26;5.72;;;1.98;;
53903;SDS011;39812;52.430;16.936;2022-08-07T04:47:59;7.30;;;2.10;;
53903;SDS011;39812;52.430;16.936;2022-08-07T04:50:42;3.83;;;1.80;;
53903;SDS011;39812;52.430;16.936;2022-08-07T04:53:16;8.02;;;2.40;;
53903;SDS011;39812;52.430;16.936;2022-08-07T04:55:50;3.03;;;1.90;;
53903;SDS011;39812;52.430;16.936;2022-08-07T04:58:22;3.78;;;2.10;;
53903;SDS011;39812;52.430;16.936;2022-08-07T05:01:20;4.60;;;1.80;;
53903;SDS011;39812;52.430;16.936;2022-08-07T05:04:01;5.43;;;2.10;;
53903;SDS011;39812;52.430;16.936;2022-08-07T05:06:35;4.55;;;2.15;;
53903;SDS011;39812;52.430;16.936;2022-08-07T05:09:08;4.57;;;1.50;;
53903;SDS011;39812;52.430;16.936;2022-08-07T05:11:43;8.40;;;1.77;;
53903;SDS011;39812;52.430;16.936;2022-08-07T05:14:25;3.60;;;1.60;;
53903;SDS011;39812;52.430;16.936;2022-08-07T05:16:58;7.43;;;2.08;;
53903;SDS011;39812;52.430;16.936;2022-08-07T05:19:26;3.85;;;1.50;;
53903;SDS011;39812;52.430;16.936;2022-08-07T05:21:58;3.75;;;1.85;;
53903;SDS011;39812;52.430;16.936;2022-08-07T05:24:25;3.35;;;1.40;;
53903;SDS011;39812;52.430;16.936;2022-08-07T05:26:52;3.72;;;1.88;;
53903;SDS011;39812;52.430;16.936;2022-08-07T05:29:22;3.47;;;1.77;;
53903;SDS011;39812;52.430;16.936;2022-08-07T05:31:49;2.95;;;1.75;;
53903;SDS011;39812;52.430;16.936;2022-08-07T05:34:16;3.65;;;1.85;;
53903;SDS011;39812;52.430;16.936;2022-08-07T05:36:45;8.02;;;1.58;;
53903;SDS011;39812;52.430;16.936;2022-08-07T05:39:12;2.25;;;1.23;;
53903;SDS011;39812;52.430;16.936;2022-08-07T05:41:40;2.50;;;1.42;;
53903;SDS011;39812;52.430;16.936;2022-08-07T05:44:07;4.13;;;1.40;;
53903;SDS011;39812;52.430;16.936;2022-08-07T05:46:35;1.88;;;1.48;;
53903;SDS011;39812;52.430;16.936;2022-08-07T05:49:02;3.10;;;1.30;;
53903;SDS011;39812;52.430;16.936;2022-08-07T05:51:30;3.28;;;1.30;;
53903;SDS011;39812;52.430;16.936;2022-08-07T05:53:55;2.78;;;1.40;;
53903;SDS011;39812;52.430;16.936;2022-08-07T05:56:21;4.78;;;1.50;;
53903;SDS011;39812;52.430;16.936;2022-08-07T05:58:47;5.43;;;1.30;;
53903;SDS011;39812;52.430;16.936;2022-08-07T06:01:14;2.97;;;1.40;;
53903;SDS011;39812;52.430;16.936;2022-08-07T06:03:42;4.07;;;1.58;;
53903;SDS011;39812;52.430;16.936;2022-08-07T06:06:11;3.85;;;1.42;;
53903;SDS011;39812;52.430;16.936;2022-08-07T06:08:38;3.65;;;1.50;;
53903;SDS011;39812;52.430;16.936;2022-08-07T06:11:05;4.00;;;1.42;;
53903;SDS011;39812;52.430;16.936;2022-08-07T06:13:32;5.25;;;1.50;;
53903;SDS011;39812;52.430;16.936;2022-08-07T06:15:59;3.58;;;1.50;;
53903;SDS011;39812;52.430;16.936;2022-08-07T06:18:27;2.40;;;1.20;;
53903;SDS011;39812;52.430;16.936;2022-08-07T06:20:54;3.30;;;1.38;;
53903;SDS011;39812;52.430;16.936;2022-08-07T06:23:19;3.70;;;1.40;;
53903;SDS011;39812;52.430;16.936;2022-08-07T06:25:45;2.78;;;1.40;;
53903;SDS011;39812;52.430;16.936;2022-08-07T06:28:11;3.67;;;1.60;;
53903;SDS011;39812;52.430;16.936;2022-08-07T06:30:37;3.42;;;1.15;;
53903;SDS011;39812;52.430;16.936;2022-08-07T06:33:04;3.30;;;1.20;;
53903;SDS011;39812;52.430;16.936;2022-08-07T06:35:30;4.20;;;1.40;;
53903;SDS011;39812;52.430;16.936;2022-08-07T06:37:58;3.05;;;1.27;;
53903;SDS011;39812;52.430;16.936;2022-08-07T06:40:23;2.40;;;1.30;;
53903;SDS011;39812;52.430;16.936;2022-08-07T06:42:49;1.92;;;1.10;;
53903;SDS011;39812;52.430;16.936;2022-08-07T06:45:18;2.08;;;1.73;;
53903;SDS011;39812;52.430;16.936;2022-08-07T06:47:46;2.97;;;1.40;;
53903;SDS011;39812;52.430;16.936;2022-08-07T06:50:11;4.45;;;1.58;;
53903;SDS011;39812;52.430;16.936;2022-08-07T06:52:38;3.20;;;1.40;;
53903;SDS011;39812;52.430;16.936;2022-08-07T06:55:15;3.55;;;1.30;;
53903;SDS011;39812;52.430;16.936;2022-08-07T06:57:45;3.80;;;1.60;;
53903;SDS011;39812;52.430;16.936;2022-08-07T07:00:12;4.85;;;1.40;;
53903;SDS011;39812;52.430;16.936;2022-08-07T07:02:38;5.82;;;1.73;;
53903;SDS011;39812;52.430;16.936;2022-08-07T07:05:05;4.25;;;1.65;;
53903;SDS011;39812;52.430;16.936;2022-08-07T07:07:31;2.72;;;1.58;;
53903;SDS011;39812;52.430;16.936;2022-08-07T07:09:57;3.72;;;2.47;;
53903;SDS011;39812;52.430;16.936;2022-08-07T07:15:23;3.50;;;2.13;;
53903;SDS011;39812;52.430;16.936;2022-08-07T07:17:53;3.38;;;1.80;;
53903;SDS011;39812;52.430;16.936;2022-08-07T07:20:33;2.50;;;1.58;;
53903;SDS011;39812;52.430;16.936;2022-08-07T07:23:01;3.60;;;2.15;;
53903;SDS011;39812;52.430;16.936;2022-08-07T07:25:29;4.88;;;1.90;;
53903;SDS011;39812;52.430;16.936;2022-08-07T07:27:59;3.30;;;2.08;;
53903;SDS011;39812;52.430;16.936;2022-08-07T07:30:39;5.30;;;1.80;;
53903;SDS011;39812;52.430;16.936;2022-08-07T07:33:09;5.57;;;1.83;;
53903;SDS011;39812;52.430;16.936;2022-08-07T07:35:39;3.78;;;1.70;;
53903;SDS011;39812;52.430;16.936;2022-08-07T07:38:07;2.53;;;1.58;;
53903;SDS011;39812;52.430;16.936;2022-08-07T07:40:34;3.67;;;1.50;;
53903;SDS011;39812;52.430;16.936;2022-08-07T07:43:02;3.17;;;1.60;;
53903;SDS011;39812;52.430;16.936;2022-08-07T07:45:29;3.78;;;1.75;;
53903;SDS011;39812;52.430;16.936;2022-08-07T07:47:55;2.83;;;1.50;;
53903;SDS011;39812;52.430;16.936;2022-08-07T07:50:23;2.22;;;1.40;;
53903;SDS011;39812;52.430;16.936;2022-08-07T07:52:51;2.75;;;1.50;;
53903;SDS011;39812;52.430;16.936;2022-08-07T07:55:18;3.35;;;1.38;;
53903;SDS011;39812;52.430;16.936;2022-08-07T07:57:48;2.45;;;1.67;;
53903;SDS011;39812;52.430;16.936;2022-08-07T08:00:15;2.22;;;1.42;;
53903;SDS011;39812;52.430;16.936;2022-08-07T08:02:41;6.25;;;1.42;;
53903;SDS011;39812;52.430;16.936;2022-08-07T08:05:09;2.40;;;1.42;;
53903;SDS011;39812;52.430;16.936;2022-08-07T08:07:37;2.05;;;1.30;;
53903;SDS011;39812;52.430;16.936;2022-08-07T08:10:03;3.30;;;1.50;;
53903;SDS011;39812;52.430;16.936;2022-08-07T08:12:31;2.42;;;1.30;;
53903;SDS011;39812;52.430;16.936;2022-08-07T08:14:57;4.70;;;1.42;;
53903;SDS011;39812;52.430;16.936;2022-08-07T08:17:24;1.85;;;1.52;;
53903;SDS011;39812;52.430;16.936;2022-08-07T08:19:52;2.22;;;1.30;;
53903;SDS011;39812;52.430;16.936;2022-08-07T08:22:20;1.77;;;1.10;;
53903;SDS011;39812;52.430;16.936;2022-08-07T08:25:06;2.58;;;1.20;;
53903;SDS011;39812;52.430;16.936;2022-08-07T08:27:52;4.22;;;1.15;;
53903;SDS011;39812;52.430;16.936;2022-08-07T08:30:19;2.42;;;1.00;;
53903;SDS011;39812;52.430;16.936;2022-08-07T08:32:46;2.92;;;1.13;;
53903;SDS011;39812;52.430;16.936;2022-08-07T08:35:17;3.60;;;1.27;;
53903;SDS011;39812;52.430;16.936;2022-08-07T08:37:45;1.75;;;1.00;;
53903;SDS011;39812;52.430;16.936;2022-08-07T08:40:13;1.88;;;0.90;;
53903;SDS011;39812;52.430;16.936;2022-08-07T08:42:51;2.63;;;0.93;;
53903;SDS011;39812;52.430;16.936;2022-08-07T08:45:34;3.38;;;1.00;;
53903;SDS011;39812;52.430;16.936;2022-08-07T08:48:07;2.42;;;1.05;;
53903;SDS011;39812;52.430;16.936;2022-08-07T08:51:02;2.30;;;0.98;;
53903;SDS011;39812;52.430;16.936;2022-08-07T09:01:35;2.80;;;1.25;;
53903;SDS011;39812;52.430;16.936;2022-08-07T09:07:14;2.42;;;1.02;;
53903;SDS011;39812;52.430;16.936;2022-08-07T09:18:36;2.20;;;1.25;;
53903;SDS011;39812;52.430;16.936;2022-08-07T09:29:43;2.45;;;1.10;;
53903;SDS011;39812;52.430;16.936;2022-08-07T09:32:30;2.95;;;1.33;;
53903;SDS011;39812;52.430;16.936;2022-08-07T09:35:29;2.03;;;1.02;;
53903;SDS011;39812;52.430;16.936;2022-08-07T09:40:33;1.73;;;1.10;;
53903;SDS011;39812;52.430;16.936;2022-08-07T09:49:17;3.30;;;0.98;;
53903;SDS011;39812;52.430;16.936;2022-08-07T09:52:07;2.60;;;1.25;;
53903;SDS011;39812;52.430;16.936;2022-08-07T09:54:38;3.70;;;1.30;;
53903;SDS011;39812;52.430;16.936;2022-08-07T10:02:33;2.75;;;1.35;;
53903;SDS011;39812;52.430;16.936;2022-08-07T10:11:11;3.75;;;1.10;;
53903;SDS011;39812;52.430;16.936;2022-08-07T10:13:57;1.88;;;0.93;;
53903;SDS011;39812;52.430;16.936;2022-08-07T10:19:13;2.50;;;1.40;;
53903;SDS011;39812;52.430;16.936;2022-08-07T10:31:02;1.85;;;1.20;;
53903;SDS011;39812;52.430;16.936;2022-08-07T10:34:02;2.85;;;0.88;;
53903;SDS011;39812;52.430;16.936;2022-08-07T10:36:44;2.97;;;1.02;;
53903;SDS011;39812;52.430;16.936;2022-08-07T10:42:31;3.00;;;1.33;;
53903;SDS011;39812;52.430;16.936;2022-08-07T10:45:25;2.47;;;1.05;;
53903;SDS011;39812;52.430;16.936;2022-08-07T10:50:49;3.55;;;1.10;;
53903;SDS011;39812;52.430;16.936;2022-08-07T10:53:24;3.35;;;1.25;;
53903;SDS011;39812;52.430;16.936;2022-08-07T10:55:59;2.97;;;1.15;;
53903;SDS011;39812;52.430;16.936;2022-08-07T10:58:45;3.25;;;1.40;;
53903;SDS011;39812;52.430;16.936;2022-08-07T11:02:08;1.63;;;1.02;;
53903;SDS011;39812;52.430;16.936;2022-08-07T11:07:18;3.08;;;1.20;;
53903;SDS011;39812;52.430;16.936;2022-08-07T11:10:19;3.17;;;1.02;;
53903;SDS011;39812;52.430;16.936;2022-08-07T11:12:55;2.00;;;1.00;;
53903;SDS011;39812;52.430;16.936;2022-08-07T11:15:26;3.13;;;1.10;;
53903;SDS011;39812;52.430;16.936;2022-08-07T11:20:47;3.97;;;1.05;;
53903;SDS011;39812;52.430;16.936;2022-08-07T11:23:33;1.40;;;0.80;;
53903;SDS011;39812;52.430;16.936;2022-08-07T11:26:23;2.72;;;0.80;;
53903;SDS011;39812;52.430;16.936;2022-08-07T11:28:57;1.60;;;1.20;;
53903;SDS011;39812;52.430;16.936;2022-08-07T11:34:17;1.95;;;1.00;;
53903;SDS011;39812;52.430;16.936;2022-08-07T11:42:51;2.63;;;1.05;;
53903;SDS011;39812;52.430;16.936;2022-08-07T11:45:36;3.22;;;1.48;;
53903;SDS011;39812;52.430;16.936;2022-08-07T11:48:29;2.95;;;1.08;;
53903;SDS011;39812;52.430;16.936;2022-08-07T11:51:16;2.80;;;1.20;;
53903;SDS011;39812;52.430;16.936;2022-08-07T11:54:11;1.58;;;1.05;;
53903;SDS011;39812;52.430;16.936;2022-08-07T11:57:08;3.45;;;1.00;;
53903;SDS011;39812;52.430;16.936;2022-08-07T12:02:35;1.92;;;1.15;;
53903;SDS011;39812;52.430;16.936;2022-08-07T12:08:43;3.97;;;1.20;;
53903;SDS011;39812;52.430;16.936;2022-08-07T12:11:19;1.80;;;0.93;;
53903;SDS011;39812;52.430;16.936;2022-08-07T12:14:07;2.70;;;1.40;;
53903;SDS011;39812;52.430;16.936;2022-08-07T12:16:40;1.48;;;1.08;;
53903;SDS011;39812;52.430;16.936;2022-08-07T12:21:57;1.65;;;1.00;;
53903;SDS011;39812;52.430;16.936;2022-08-07T12:24:47;1.53;;;1.00;;
53903;SDS011;39812;52.430;16.936;2022-08-07T12:27:45;2.53;;;0.93;;
53903;SDS011;39812;52.430;16.936;2022-08-07T12:30:14;2.25;;;1.00;;
53903;SDS011;39812;52.430;16.936;2022-08-07T12:35:10;1.30;;;0.80;;
53903;SDS011;39812;52.430;16.936;2022-08-07T12:37:37;1.90;;;0.90;;
53903;SDS011;39812;52.430;16.936;2022-08-07T12:40:05;2.78;;;0.98;;
53903;SDS011;39812;52.430;16.936;2022-08-07T12:42:32;1.83;;;1.10;;
53903;SDS011;39812;52.430;16.936;2022-08-07T12:45:06;2.15;;;1.00;;
53903;SDS011;39812;52.430;16.936;2022-08-07T12:47:41;2.08;;;1.20;;
53903;SDS011;39812;52.430;16.936;2022-08-07T12:50:28;3.90;;;0.90;;
53903;SDS011;39812;52.430;16.936;2022-08-07T12:53:03;3.03;;;1.08;;
53903;SDS011;39812;52.430;16.936;2022-08-07T12:58:27;2.67;;;0.90;;
53903;SDS011;39812;52.430;16.936;2022-08-07T13:01:15;1.38;;;1.00;;
53903;SDS011;39812;52.430;16.936;2022-08-07T13:15:35;1.58;;;1.02;;
53903;SDS011;39812;52.430;16.936;2022-08-07T13:18:04;1.70;;;0.95;;
53903;SDS011;39812;52.430;16.936;2022-08-07T13:20:58;5.50;;;1.20;;
53903;SDS011;39812;52.430;16.936;2022-08-07T13:26:39;1.90;;;1.08;;
53903;SDS011;39812;52.430;16.936;2022-08-07T13:29:12;1.92;;;1.13;;
53903;SDS011;39812;52.430;16.936;2022-08-07T13:31:49;1.35;;;0.88;;
53903;SDS011;39812;52.430;16.936;2022-08-07T13:34:37;3.45;;;1.10;;
53903;SDS011;39812;52.430;16.936;2022-08-07T13:37:30;2.78;;;1.20;;
53903;SDS011;39812;52.430;16.936;2022-08-07T13:40:24;1.58;;;0.90;;
53903;SDS011;39812;52.430;16.936;2022-08-07T13:42:55;2.88;;;1.15;;
53903;SDS011;39812;52.430;16.936;2022-08-07T13:45:24;3.67;;;1.30;;
53903;SDS011;39812;52.430;16.936;2022-08-07T13:47:52;2.25;;;1.00;;
53903;SDS011;39812;52.430;16.936;2022-08-07T13:50:21;2.45;;;1.00;;
53903;SDS011;39812;52.430;16.936;2022-08-07T13:52:48;2.03;;;1.25;;
53903;SDS011;39812;52.430;16.936;2022-08-07T13:55:16;1.88;;;1.20;;
53903;SDS011;39812;52.430;16.936;2022-08-07T13:57:45;5.07;;;1.42;;
53903;SDS011;39812;52.430;16.936;2022-08-07T14:00:15;2.80;;;1.20;;
53903;SDS011;39812;52.430;16.936;2022-08-07T14:02:42;1.60;;;1.00;;
53903;SDS011;39812;52.430;16.936;2022-08-07T14:05:12;2.40;;;1.20;;
53903;SDS011;39812;52.430;16.936;2022-08-07T14:07:42;3.42;;;1.30;;
53903;SDS011;39812;52.430;16.936;2022-08-07T14:10:10;3.83;;;1.00;;
53903;SDS011;39812;52.430;16.936;2022-08-07T14:12:43;2.20;;;1.20;;
53903;SDS011;39812;52.430;16.936;2022-08-07T14:15:28;1.67;;;1.23;;
53903;SDS011;39812;52.430;16.936;2022-08-07T14:18:06;2.70;;;1.00;;
53903;SDS011;39812;52.430;16.936;2022-08-07T14:20:40;2.05;;;1.00;;
53903;SDS011;39812;52.430;16.936;2022-08-07T14:23:21;2.83;;;1.00;;
53903;SDS011;39812;52.430;16.936;2022-08-07T14:25:53;4.53;;;1.00;;
53903;SDS011;39812;52.430;16.936;2022-08-07T14:28:23;3.05;;;0.95;;
53903;SDS011;39812;52.430;16.936;2022-08-07T14:30:52;1.80;;;0.85;;
53903;SDS011;39812;52.430;16.936;2022-08-07T14:33:19;1.65;;;0.95;;
53903;SDS011;39812;52.430;16.936;2022-08-07T14:35:46;2.33;;;0.90;;
53903;SDS011;39812;52.430;16.936;2022-08-07T14:38:13;2.05;;;1.10;;
53903;SDS011;39812;52.430;16.936;2022-08-07T14:40:39;4.82;;;1.08;;
53903;SDS011;39812;52.430;16.936;2022-08-07T14:43:09;1.30;;;0.70;;
53903;SDS011;39812;52.430;16.936;2022-08-07T14:45:42;2.75;;;1.00;;
53903;SDS011;39812;52.430;16.936;2022-08-07T14:48:19;2.47;;;1.02;;
53903;SDS011;39812;52.430;16.936;2022-08-07T14:50:49;2.78;;;0.90;;
53903;SDS011;39812;52.430;16.936;2022-08-07T14:53:20;3.63;;;1.08;;
53903;SDS011;39812;52.430;16.936;2022-08-07T14:55:47;3.45;;;1.27;;
53903;SDS011;39812;52.430;16.936;2022-08-07T14:58:14;3.13;;;0.90;;
53903;SDS011;39812;52.430;16.936;2022-08-07T15:00:42;2.97;;;1.00;;
53903;SDS011;39812;52.430;16.936;2022-08-07T15:03:11;2.25;;;1.10;;
53903;SDS011;39812;52.430;16.936;2022-08-07T15:05:38;3.88;;;1.17;;
53903;SDS011;39812;52.430;16.936;2022-08-07T15:08:06;3.55;;;1.17;;
53903;SDS011;39812;52.430;16.936;2022-08-07T15:10:33;1.98;;;1.00;;
53903;SDS011;39812;52.430;16.936;2022-08-07T15:13:01;2.67;;;0.82;;
53903;SDS011;39812;52.430;16.936;2022-08-07T15:15:36;2.80;;;0.95;;
53903;SDS011;39812;52.430;16.936;2022-08-07T15:18:09;2.70;;;0.90;;
53903;SDS011;39812;52.430;16.936;2022-08-07T15:20:39;1.95;;;1.00;;
53903;SDS011;39812;52.430;16.936;2022-08-07T15:23:06;2.30;;;1.23;;
53903;SDS011;39812;52.430;16.936;2022-08-07T15:25:37;6.03;;;1.00;;
53903;SDS011;39812;52.430;16.936;2022-08-07T15:28:05;2.53;;;0.90;;
53903;SDS011;39812;52.430;16.936;2022-08-07T15:30:32;2.25;;;1.00;;
53903;SDS011;39812;52.430;16.936;2022-08-07T15:33:00;1.98;;;0.98;;
53903;SDS011;39812;52.430;16.936;2022-08-07T15:35:28;3.65;;;1.00;;
53903;SDS011;39812;52.430;16.936;2022-08-07T15:37:57;2.55;;;0.82;;
53903;SDS011;39812;52.430;16.936;2022-08-07T15:40:25;1.15;;;0.70;;
53903;SDS011;39812;52.430;16.936;2022-08-07T15:43:13;2.55;;;0.85;;
53903;SDS011;39812;52.430;16.936;2022-08-07T15:45:41;1.42;;;0.73;;
53903;SDS011;39812;52.430;16.936;2022-08-07T15:48:15;1.70;;;0.68;;
53903;SDS011;39812;52.430;16.936;2022-08-07T15:50:47;3.05;;;1.00;;
53903;SDS011;39812;52.430;16.936;2022-08-07T15:53:18;3.78;;;1.00;;
53903;SDS011;39812;52.430;16.936;2022-08-07T15:55:51;1.95;;;1.00;;
53903;SDS011;39812;52.430;16.936;2022-08-07T15:58:20;3.58;;;0.80;;
53903;SDS011;39812;52.430;16.936;2022-08-07T16:00:55;1.67;;;0.70;;
53903;SDS011;39812;52.430;16.936;2022-08-07T16:03:21;2.45;;;0.80;;
53903;SDS011;39812;52.430;16.936;2022-08-07T16:05:50;5.90;;;0.70;;
53903;SDS011;39812;52.430;16.936;2022-08-07T16:08:18;1.65;;;0.75;;
53903;SDS011;39812;52.430;16.936;2022-08-07T16:10:56;2.22;;;0.88;;
53903;SDS011;39812;52.430;16.936;2022-08-07T16:19:27;1.60;;;0.80;;
53903;SDS011;39812;52.430;16.936;2022-08-07T16:28:16;1.45;;;0.77;;
53903;SDS011;39812;52.430;16.936;2022-08-07T16:31:08;1.35;;;1.00;;
53903;SDS011;39812;52.430;16.936;2022-08-07T16:33:47;3.45;;;0.80;;
53903;SDS011;39812;52.430;16.936;2022-08-07T16:36:19;2.53;;;1.00;;
53903;SDS011;39812;52.430;16.936;2022-08-07T16:38:54;2.13;;;0.93;;
53903;SDS011;39812;52.430;16.936;2022-08-07T16:41:34;2.88;;;0.80;;
53903;SDS011;39812;52.430;16.936;2022-08-07T16:44:31;1.50;;;0.80;;
53903;SDS011;39812;52.430;16.936;2022-08-07T16:52:40;2.63;;;0.93;;
53903;SDS011;39812;52.430;16.936;2022-08-07T16:55:35;3.60;;;1.10;;
53903;SDS011;39812;52.430;16.936;2022-08-07T16:58:11;2.10;;;0.80;;
53903;SDS011;39812;52.430;16.936;2022-08-07T17:03:59;9.15;;;1.23;;
53903;SDS011;39812;52.430;16.936;2022-08-07T17:06:53;1.85;;;1.00;;
53903;SDS011;39812;52.430;16.936;2022-08-07T17:09:32;1.77;;;1.00;;
53903;SDS011;39812;52.430;16.936;2022-08-07T17:12:15;2.85;;;0.98;;
53903;SDS011;39812;52.430;16.936;2022-08-07T17:14:51;2.38;;;0.90;;